createdAt,value
2023-05-17T00:02:05.809Z,98300.91
2023-05-17T00:04:32.231Z,98288.28
2023-05-17T00:06:58.654Z,98302.19
2023-05-17T00:09:25.065Z,98303.03
2023-05-17T00:11:51.376Z,98304.47
2023-05-17T00:14:17.764Z,98303.47
2023-05-17T00:16:44.094Z,98305.94
2023-05-17T00:19:10.620Z,98306.59
2023-05-17T00:21:37.087Z,98303.75
2023-05-17T00:24:03.743Z,98284.22
2023-05-17T00:26:30.220Z,98295.44
2023-05-17T00:28:56.615Z,98298.47
2023-05-17T00:31:22.992Z,98293.81
2023-05-17T00:33:49.406Z,98297.13
2023-05-17T00:36:15.760Z,98292.41
2023-05-17T00:38:42.084Z,98297.31
2023-05-17T00:41:08.615Z,98296.31
2023-05-17T00:43:35.021Z,98299.59
2023-05-17T00:46:01.354Z,98301.25
2023-05-17T00:48:27.875Z,98302.84
2023-05-17T00:50:54.285Z,98293.88
2023-05-17T00:53:20.665Z,98302.25
2023-05-17T00:55:47.196Z,98300.03
2023-05-17T00:58:13.560Z,98296.97
2023-05-17T01:00:39.960Z,98298.41
2023-05-17T01:03:06.529Z,98298.00
2023-05-17T01:05:32.942Z,98301.28
2023-05-17T01:07:59.289Z,98294.53
2023-05-17T01:10:25.653Z,98301.28
2023-05-17T01:12:52.108Z,98303.53
2023-05-17T01:15:18.453Z,98297.00
2023-05-17T01:17:44.950Z,98292.91
2023-05-17T01:20:11.496Z,98300.44
2023-05-17T01:22:37.917Z,98305.34
2023-05-17T01:25:04.223Z,98295.16
2023-05-17T01:27:30.556Z,98308.00
2023-05-17T01:29:56.889Z,98307.59
2023-05-17T01:32:23.343Z,98314.91
2023-05-17T01:34:49.871Z,98317.16
2023-05-17T01:37:16.206Z,98315.75
2023-05-17T01:39:42.612Z,98320.41
2023-05-17T01:42:09.010Z,98328.78
2023-05-17T01:44:35.385Z,98327.31
2023-05-17T01:47:01.786Z,98324.88
2023-05-17T01:49:28.639Z,98326.91
2023-05-17T01:51:54.978Z,98335.06
2023-05-17T01:54:21.457Z,98331.78
2023-05-17T01:56:48.090Z,98326.91
2023-05-17T01:59:15.223Z,98327.13
2023-05-17T02:01:41.581Z,98329.94
2023-05-17T02:04:07.958Z,98328.53
2023-05-17T02:06:34.644Z,98334.22
2023-05-17T02:09:01.197Z,98330.97
2023-05-17T02:11:27.600Z,98333.81
2023-05-17T02:13:54.350Z,98315.03
2023-05-17T02:16:20.657Z,98335.41
2023-05-17T02:18:47.157Z,98331.13
2023-05-17T02:21:13.596Z,98332.16
2023-05-17T02:23:40.392Z,98320.94
2023-05-17T02:26:06.816Z,98321.97
2023-05-17T02:28:33.178Z,98323.19
2023-05-17T02:30:59.641Z,98328.66
2023-05-17T02:33:26.057Z,98332.34
2023-05-17T02:35:52.570Z,98327.44
2023-05-17T02:38:18.944Z,98331.09
2023-05-17T02:40:45.263Z,98326.81
2023-05-17T02:43:11.582Z,98330.44
2023-05-17T02:45:38.005Z,98322.72
2023-05-17T02:48:04.395Z,98321.88
2023-05-17T02:50:30.831Z,98318.63
2023-05-17T02:52:57.191Z,98318.63
2023-05-17T02:55:23.564Z,98324.13
2023-05-17T02:57:50.149Z,98320.69
2023-05-17T03:00:16.475Z,98319.84
2023-05-17T03:02:43.168Z,98323.50
2023-05-17T03:05:09.694Z,98328.78
2023-05-17T03:07:36.035Z,98325.34
2023-05-17T03:10:02.525Z,98342.22
2023-05-17T03:12:29.639Z,98336.31
2023-05-17T03:14:56.204Z,98347.72
2023-05-17T03:17:22.865Z,98344.22
2023-05-17T03:19:49.368Z,98345.25
2023-05-17T03:22:15.804Z,98343.81
2023-05-17T03:24:42.265Z,98348.31
2023-05-17T03:27:08.638Z,98350.34
2023-05-17T03:29:34.979Z,98356.63
2023-05-17T03:32:01.522Z,98359.47
2023-05-17T03:34:27.850Z,98362.31
2023-05-17T03:36:54.214Z,98364.13
2023-05-17T03:39:21.683Z,98366.97
2023-05-17T03:41:48.033Z,98366.97
2023-05-17T03:44:14.586Z,98365.34
2023-05-17T03:46:41.201Z,98375.09
2023-05-17T03:49:07.894Z,98375.09
2023-05-17T03:51:34.365Z,98374.28
2023-05-17T03:54:00.714Z,98378.97
2023-05-17T03:56:27.050Z,98380.78
2023-05-17T03:58:53.557Z,98382.59
2023-05-17T04:01:19.883Z,98380.78
2023-05-17T04:03:46.291Z,98390.53
2023-05-17T04:06:12.633Z,98386.28
2023-05-17T04:08:39.113Z,98393.38
2023-05-17T04:11:05.506Z,98403.13
2023-05-17T04:13:31.874Z,98400.50
2023-05-17T04:15:58.226Z,98404.59
2023-05-17T04:18:26.735Z,98407.25
2023-05-17T04:20:53.120Z,98414.03
2023-05-17T04:23:19.460Z,98405.41
2023-05-17T04:25:45.801Z,98411.53
2023-05-17T04:28:12.074Z,98407.81
2023-05-17T04:30:38.455Z,98416.69
2023-05-17T04:33:05.461Z,98416.28
2023-05-17T04:35:32.033Z,98422.81
2023-05-17T04:37:58.448Z,98425.22
2023-05-17T04:40:24.789Z,98428.28
2023-05-17T04:42:51.183Z,98434.56
2023-05-17T04:45:17.480Z,98435.00
2023-05-17T04:50:27.326Z,98433.19
2023-05-17T04:52:54.016Z,98437.91
2023-05-17T04:55:20.402Z,98442.00
2023-05-17T04:57:47.209Z,98445.09
2023-05-17T05:00:13.961Z,98452.28
2023-05-17T05:02:43.764Z,98455.66
2023-05-17T05:05:10.394Z,98455.88
2023-05-17T05:07:36.798Z,98461.19
2023-05-17T05:10:03.142Z,98469.16
2023-05-17T05:12:29.470Z,98475.31
2023-05-17T05:14:55.916Z,98467.81
2023-05-17T05:17:22.230Z,98481.50
2023-05-17T05:19:48.626Z,98480.69
2023-05-17T05:22:15.013Z,98479.06
2023-05-17T05:24:41.737Z,98492.50
2023-05-17T05:27:08.080Z,98491.63
2023-05-17T05:29:34.398Z,98501.75
2023-05-17T05:32:00.818Z,98510.69
2023-05-17T05:34:27.275Z,98521.44
2023-05-17T05:36:53.599Z,98524.22
2023-05-17T05:39:20.001Z,98520.97
2023-05-17T05:41:46.339Z,98533.81
2023-05-17T05:44:12.642Z,98530.69
2023-05-17T05:46:38.962Z,98530.63
2023-05-17T05:49:05.421Z,98532.72
2023-05-17T05:51:31.988Z,98540.56
2023-05-17T05:53:58.329Z,98535.59
2023-05-17T05:56:24.780Z,98530.13
2023-05-17T05:58:51.366Z,98540.88
2023-05-17T06:01:17.893Z,98549.28
2023-05-17T06:03:44.198Z,98556.47
2023-05-17T06:06:10.635Z,98554.19
2023-05-17T06:08:37.064Z,98560.59
2023-05-17T06:11:03.456Z,98565.28
2023-05-17T06:13:29.835Z,98570.59
2023-05-17T06:15:56.225Z,98562.00
2023-05-17T06:18:22.691Z,98576.53
2023-05-17T06:20:49.104Z,98570.03
2023-05-17T06:23:15.766Z,98570.50
2023-05-17T06:25:42.126Z,98571.34
2023-05-17T06:28:08.460Z,98572.72
2023-05-17T06:30:34.802Z,98580.63
2023-05-17T06:33:01.238Z,98591.78
2023-05-17T06:35:28.135Z,98598.59
2023-05-17T06:37:55.846Z,98605.00
2023-05-17T06:40:22.156Z,98609.56
2023-05-17T06:42:48.463Z,98609.91
2023-05-17T06:45:14.950Z,98609.84
2023-05-17T06:47:41.391Z,98606.16
2023-05-17T06:50:07.774Z,98610.16
2023-05-17T06:52:34.131Z,98620.41
2023-05-17T06:55:00.551Z,98622.28
2023-05-17T06:57:26.947Z,98616.34
2023-05-17T06:59:53.412Z,98617.72
2023-05-17T07:02:19.792Z,98617.47
2023-05-17T07:04:46.513Z,98614.53
2023-05-17T07:07:13.255Z,98618.44
2023-05-17T07:09:39.628Z,98629.09
2023-05-17T07:12:05.967Z,98626.84
2023-05-17T07:14:32.385Z,98617.50
2023-05-17T07:16:58.749Z,98630.72
2023-05-17T07:19:26.009Z,98635.09
2023-05-17T07:21:52.558Z,98622.72
2023-05-17T07:24:18.855Z,98623.78
2023-05-17T07:26:45.200Z,98621.88
2023-05-17T07:29:11.546Z,98624.66
2023-05-17T07:31:38.085Z,98622.41
2023-05-17T07:34:04.437Z,98632.56
2023-05-17T07:36:30.995Z,98628.25
2023-05-17T07:38:57.347Z,98632.56
2023-05-17T07:41:23.752Z,98636.28
2023-05-17T07:43:50.357Z,98639.56
2023-05-17T07:46:16.863Z,98645.47
2023-05-17T07:48:43.434Z,98643.13
2023-05-17T07:51:09.920Z,98635.38
2023-05-17T07:53:36.362Z,98646.91
2023-05-17T07:56:02.704Z,98660.88
2023-05-17T07:58:29.072Z,98652.03
2023-05-17T08:00:55.490Z,98646.53
2023-05-17T08:03:21.889Z,98648.44
2023-05-17T08:05:48.321Z,98649.94
2023-05-17T08:08:14.713Z,98643.78
2023-05-17T08:10:41.076Z,98663.75
2023-05-17T08:13:07.492Z,98719.03
2023-05-17T08:15:33.838Z,98750.59
2023-05-17T08:18:02.944Z,98823.16
2023-05-17T08:20:30.778Z,98866.53
2023-05-17T08:22:57.137Z,98880.66
2023-05-17T08:25:23.687Z,98893.94
2023-05-17T08:27:50.034Z,98682.44
2023-05-17T08:30:28.153Z,98639.06
2023-05-17T08:32:55.413Z,98644.44
2023-05-17T08:35:22.013Z,98698.03
2023-05-17T08:37:48.407Z,98719.09
2023-05-17T08:40:14.869Z,98730.47
2023-05-17T08:42:41.381Z,98668.88
2023-05-17T08:45:07.813Z,98820.16
2023-05-17T08:47:34.326Z,98908.03
2023-05-17T08:50:00.966Z,98889.91
2023-05-17T08:52:27.571Z,98841.28
2023-05-17T08:54:54.249Z,98670.41
2023-05-17T08:57:20.628Z,98627.91
2023-05-17T09:05:11.351Z,98621.97
2023-05-17T09:07:38.053Z,98626.75
2023-05-17T09:10:04.401Z,98624.53
2023-05-17T09:12:30.778Z,98626.69
2023-05-17T09:14:57.090Z,98626.38
2023-05-17T09:17:23.486Z,98643.59
2023-05-17T09:19:49.910Z,98637.66
2023-05-17T09:22:16.509Z,98640.31
2023-05-17T09:24:43.011Z,98630.94
2023-05-17T09:27:10.741Z,98629.56
2023-05-17T09:29:37.099Z,98638.16
2023-05-17T09:32:03.540Z,98634.09
2023-05-17T09:34:30.105Z,98634.88
2023-05-17T09:36:56.494Z,98639.44
2023-05-17T09:39:22.866Z,98634.91
2023-05-17T09:41:49.221Z,98642.16
2023-05-17T09:47:27.741Z,98621.63
2023-05-17T09:49:54.791Z,98629.50
2023-05-17T10:51:01.913Z,98622.28
2023-05-17T10:53:28.532Z,98614.19
2023-05-17T10:55:55.110Z,98617.63
2023-05-17T10:58:21.505Z,98611.13
2023-05-17T11:00:47.853Z,98608.69
2023-05-17T11:06:25.567Z,98610.59
2023-05-17T11:08:53.029Z,98612.94
2023-05-17T11:11:19.723Z,98604.28
2023-05-17T11:13:46.125Z,98602.13
2023-05-17T11:16:12.554Z,98597.00
2023-05-17T11:18:39.840Z,98596.41
2023-05-17T11:21:08.237Z,98589.41
2023-05-17T11:23:34.686Z,98593.72
2023-05-17T11:26:12.863Z,98597.22
2023-05-17T11:28:42.828Z,98600.09
2023-05-17T11:31:09.500Z,98605.63
2023-05-17T11:33:35.929Z,98609.16
2023-05-17T11:36:02.455Z,98605.91
2023-05-17T11:38:28.815Z,98612.84
2023-05-17T11:40:55.162Z,98612.25
2023-05-17T11:43:21.472Z,98606.59
2023-05-17T11:45:48.548Z,98605.19
2023-05-17T11:48:15.964Z,98602.97
2023-05-17T11:50:42.399Z,98595.50
2023-05-17T11:53:11.766Z,98594.66
2023-05-17T11:55:38.047Z,98596.78
2023-05-17T11:58:04.405Z,98604.03
2023-05-17T12:00:30.964Z,98608.34
2023-05-17T12:02:57.391Z,98606.22
2023-05-17T12:05:23.840Z,98609.69
2023-05-17T12:07:50.207Z,98602.13
2023-05-17T12:10:16.572Z,98605.78
2023-05-17T12:12:42.938Z,98610.06
2023-05-17T12:15:09.256Z,98606.56
2023-05-17T12:17:35.816Z,98602.78
2023-05-17T12:20:02.373Z,98611.66
2023-05-17T12:22:28.787Z,98608.16
2023-05-17T12:24:55.163Z,98609.50
2023-05-17T12:27:21.540Z,98609.69
2023-05-17T12:29:47.893Z,98613.22
2023-05-17T12:32:14.270Z,98613.78
2023-05-17T12:34:40.625Z,98605.75
2023-05-17T12:37:07.040Z,98612.75
2023-05-17T12:39:34.717Z,98607.38
2023-05-17T12:42:01.081Z,98610.06
2023-05-17T12:44:27.419Z,98611.94
2023-05-17T12:46:54.014Z,98611.09
2023-05-17T12:49:23.762Z,98610.31
2023-05-17T12:51:50.190Z,98604.13
2023-05-17T12:54:16.544Z,98610.31
2023-05-17T12:56:42.875Z,98608.38
2023-05-17T12:59:09.244Z,98608.06
2023-05-17T13:01:35.619Z,98616.94
2023-05-17T13:04:02.630Z,98605.88
2023-05-17T13:06:29.099Z,98609.91
2023-05-17T13:08:55.523Z,98617.19
2023-05-17T13:11:21.860Z,98610.63
2023-05-17T13:13:48.248Z,98625.34
2023-05-17T13:16:14.657Z,98611.94
2023-05-17T13:18:41.273Z,98605.50
2023-05-17T13:21:07.742Z,98600.97
2023-05-17T13:23:34.093Z,98604.63
2023-05-17T13:26:00.565Z,98607.81
2023-05-17T13:28:27.005Z,98614.75
2023-05-17T13:30:53.500Z,98616.59
2023-05-17T13:33:19.973Z,98613.13
2023-05-17T13:35:46.438Z,98613.03
2023-05-17T13:38:12.911Z,98610.13
2023-05-17T13:40:39.286Z,98605.56
2023-05-17T13:43:07.924Z,98611.22
2023-05-17T13:45:34.802Z,98606.69
2023-05-17T13:48:01.382Z,98601.25
2023-05-17T13:50:28.237Z,98607.91
2023-05-17T13:52:54.950Z,98606.78
2023-05-17T13:55:24.360Z,98608.34
2023-05-17T13:57:50.753Z,98603.78
2023-05-17T14:00:17.270Z,98606.78
2023-05-17T14:02:43.999Z,98600.03
2023-05-17T14:05:10.477Z,98604.09
2023-05-17T14:07:36.936Z,98596.31
2023-05-17T14:10:03.321Z,98591.97
2023-05-17T14:12:29.699Z,98608.34
2023-05-17T14:14:56.046Z,98606.72
2023-05-17T14:17:22.375Z,98606.72
2023-05-17T14:19:48.863Z,98611.03
2023-05-17T14:22:15.482Z,98611.03
2023-05-17T14:24:41.822Z,98600.28
2023-05-17T14:27:08.176Z,98599.22
2023-05-17T14:29:34.566Z,98615.31
2023-05-17T14:32:00.879Z,98607.50
2023-05-17T14:34:27.604Z,98606.72
2023-05-17T14:36:54.648Z,98610.13
2023-05-17T14:39:20.978Z,98616.25
2023-05-17T14:41:47.351Z,98614.84
2023-05-17T14:44:13.722Z,98617.78
2023-05-17T14:46:40.138Z,98616.19
2023-05-17T14:49:06.608Z,98614.47
2023-05-17T14:51:32.979Z,98620.59
2023-05-17T14:53:59.246Z,98619.19
2023-05-17T14:56:25.814Z,98628.06
2023-05-17T14:58:52.171Z,98622.94
2023-05-17T15:01:18.700Z,98620.53
2023-05-17T15:03:45.147Z,98621.25
2023-05-17T15:06:12.115Z,98623.84
2023-05-17T15:08:38.520Z,98625.63
2023-05-17T15:11:04.913Z,98632.31
2023-05-17T15:13:31.366Z,98630.34
2023-05-17T15:15:57.743Z,98629.78
2023-05-17T15:18:24.112Z,98626.31
2023-05-17T15:20:50.538Z,98628.97
2023-05-17T15:23:16.905Z,98631.91
2023-05-17T15:25:43.257Z,98637.28
2023-05-17T15:28:09.738Z,98634.59
2023-05-17T15:30:36.064Z,98631.81
2023-05-17T15:33:02.926Z,98634.97
2023-05-17T15:38:44.032Z,98632.78
2023-05-17T15:41:10.784Z,98627.09
2023-05-17T15:43:37.268Z,98623.53
2023-05-17T15:46:04.712Z,98628.44
2023-05-17T15:48:33.667Z,98629.09
2023-05-17T15:51:01.685Z,98630.78
2023-05-17T15:53:28.065Z,98630.88
2023-05-17T15:55:54.375Z,98629.28
2023-05-17T15:58:20.719Z,98630.72
2023-05-17T16:00:47.280Z,98635.81
2023-05-17T16:03:13.683Z,98633.72
2023-05-17T16:05:40.359Z,98639.09
2023-05-17T16:08:06.774Z,98634.50
2023-05-17T16:10:33.337Z,98634.28
2023-05-17T16:12:59.676Z,98631.59
2023-05-17T16:15:26.028Z,98633.22
2023-05-17T16:17:52.516Z,98636.47
2023-05-17T16:20:22.017Z,98639.16
2023-05-17T16:22:48.346Z,98632.69
2023-05-17T16:25:14.686Z,98641.56
2023-05-17T16:27:41.332Z,98644.50
2023-05-17T16:30:07.631Z,98650.13
2023-05-17T16:32:34.161Z,98650.38
2023-05-17T16:35:00.626Z,98654.09
2023-05-17T16:37:27.318Z,98657.28
2023-05-17T16:39:53.662Z,98652.75
2023-05-17T16:42:20.165Z,98660.22
2023-05-17T16:44:46.516Z,98666.38
2023-05-17T16:47:13.287Z,98668.28
2023-05-17T16:49:39.684Z,98668.50
2023-05-17T16:52:05.982Z,98669.53
2023-05-17T16:54:33.266Z,98669.22
2023-05-17T16:56:59.582Z,98666.78
2023-05-17T16:59:25.940Z,98671.59
2023-05-17T17:01:52.896Z,98665.66
2023-05-17T17:04:19.314Z,98672.91
2023-05-17T17:06:49.076Z,98672.59
2023-05-17T17:09:15.502Z,98687.84
2023-05-17T17:11:42.037Z,98682.16
2023-05-17T17:14:08.444Z,98685.09
2023-05-17T17:16:34.872Z,98682.66
2023-05-17T17:19:01.569Z,98682.91
2023-05-17T17:21:27.922Z,98679.91
2023-05-17T17:23:54.276Z,98682.59
2023-05-17T17:26:20.602Z,98682.03
2023-05-17T17:28:46.971Z,98684.13
2023-05-17T17:31:13.312Z,98680.06
2023-05-17T17:33:39.785Z,98680.31
2023-05-17T17:36:06.429Z,98685.91
2023-05-17T17:38:32.941Z,98685.34
2023-05-17T17:40:59.698Z,98681.28
2023-05-17T17:43:26.094Z,98686.09
2023-05-17T17:45:52.562Z,98684.44
2023-05-17T17:48:18.934Z,98686.59
2023-05-17T17:50:45.234Z,98684.13
2023-05-17T17:53:11.663Z,98683.56
2023-05-17T17:55:38.487Z,98682.19
2023-05-17T17:58:05.528Z,98681.59
2023-05-17T18:00:31.944Z,98683.72
2023-05-17T18:02:58.491Z,98689.31
2023-05-17T18:05:24.880Z,98687.94
2023-05-17T18:07:51.353Z,98685.72
2023-05-17T18:10:17.739Z,98696.47
2023-05-17T18:12:44.032Z,98691.59
2023-05-17T18:15:10.473Z,98701.72
2023-05-17T18:17:37.068Z,98707.34
2023-05-17T18:20:03.388Z,98700.38
2023-05-17T18:22:29.722Z,98705.97
2023-05-17T18:24:56.041Z,98704.31
2023-05-17T18:27:22.482Z,98705.41
2023-05-17T18:29:48.804Z,98704.00
2023-05-17T18:32:15.189Z,98711.22
2023-05-17T18:34:41.533Z,98711.47
2023-05-17T18:37:10.549Z,98709.00
2023-05-17T18:39:36.909Z,98711.09
2023-05-17T18:42:03.219Z,98710.53
2023-05-17T18:44:31.698Z,98717.78
2023-05-17T18:46:58.146Z,98716.38
2023-05-17T18:49:24.791Z,98725.47
2023-05-17T18:51:51.512Z,98709.88
2023-05-17T18:54:17.818Z,98718.97
2023-05-17T18:56:44.604Z,98714.91
2023-05-17T18:59:10.990Z,98719.13
2023-05-17T19:01:37.420Z,98720.38
2023-05-17T19:04:03.941Z,98719.81
2023-05-17T19:06:30.680Z,98726.22
2023-05-17T19:08:57.193Z,98731.00
2023-05-17T19:11:26.397Z,98728.56
2023-05-17T19:13:52.737Z,98731.50
2023-05-17T19:16:19.987Z,98737.09
2023-05-17T19:18:46.893Z,98737.53
2023-05-17T19:21:14.601Z,98745.03
2023-05-17T19:23:41.024Z,98742.56
2023-05-17T19:26:07.468Z,98748.41
2023-05-17T19:28:33.793Z,98745.13
2023-05-17T19:31:00.218Z,98748.06
2023-05-17T19:33:26.566Z,98757.41
2023-05-17T19:35:52.879Z,98749.81
2023-05-17T19:38:19.322Z,98751.72
2023-05-17T19:40:45.671Z,98756.47
2023-05-17T19:43:12.375Z,98752.41
2023-05-17T19:45:39.571Z,98758.00
2023-05-17T19:48:07.003Z,98758.22
2023-05-17T19:50:33.634Z,98763.59
2023-05-17T19:52:59.937Z,98767.53
2023-05-17T19:55:26.231Z,98767.78
2023-05-17T19:57:52.580Z,98763.47
2023-05-17T20:00:18.894Z,98767.44
2023-05-17T20:02:45.598Z,98769.31
2023-05-17T20:05:12.174Z,98765.00
2023-05-17T20:07:38.490Z,98778.63
2023-05-17T20:10:04.830Z,98781.53
2023-05-17T20:12:31.251Z,98781.78
2023-05-17T20:14:57.565Z,98775.00
2023-05-17T20:17:24.131Z,98777.91
2023-05-17T20:19:50.468Z,98781.91
2023-05-17T20:22:16.747Z,98783.75
2023-05-17T20:24:43.057Z,98792.03
2023-05-17T20:27:09.298Z,98789.75
2023-05-17T20:29:35.590Z,98792.91
2023-05-17T20:32:01.979Z,98790.47
2023-05-17T20:34:28.368Z,98794.41
2023-05-17T20:36:54.704Z,98798.16
2023-05-17T20:39:22.266Z,98802.09
2023-05-17T20:41:48.702Z,98805.81
2023-05-17T20:44:15.033Z,98807.91
2023-05-17T20:46:41.569Z,98808.16
2023-05-17T20:49:07.918Z,98812.91
2023-05-17T20:51:34.316Z,98811.28
2023-05-17T20:54:00.612Z,98811.28
2023-05-17T20:56:27.029Z,98814.22
2023-05-17T20:58:53.428Z,98822.47
2023-05-17T21:01:19.803Z,98820.59
2023-05-17T21:03:46.560Z,98823.50
2023-05-17T21:06:13.331Z,98824.56
2023-05-17T21:08:39.835Z,98825.59
2023-05-17T21:11:06.428Z,98831.41
2023-05-17T21:13:32.881Z,98834.91
2023-05-17T21:15:59.200Z,98834.31
2023-05-17T21:18:25.658Z,98829.19
2023-05-17T21:20:51.952Z,98830.47
2023-05-17T21:23:18.360Z,98828.84
2023-05-17T21:25:44.775Z,98832.53
2023-05-17T21:28:11.143Z,98833.84
2023-05-17T21:30:37.512Z,98832.19
2023-05-17T21:33:03.980Z,98834.28
2023-05-17T21:35:30.263Z,98835.34
2023-05-17T21:37:56.581Z,98831.25
2023-05-17T21:40:23.138Z,98836.81
2023-05-17T21:42:49.465Z,98839.72
2023-05-17T21:45:15.802Z,98836.47
2023-05-17T21:47:42.526Z,98834.84
2023-05-17T21:50:08.854Z,98843.09
2023-05-17T21:52:35.145Z,98842.75
2023-05-17T21:55:01.574Z,98833.97
2023-05-17T21:57:27.854Z,98834.16
2023-05-17T21:59:54.232Z,98827.41
2023-05-17T22:02:20.592Z,98829.75
2023-05-17T22:04:46.917Z,98837.78
2023-05-17T22:07:13.275Z,98839.47
2023-05-17T22:09:39.668Z,98845.16
2023-05-17T22:12:06.082Z,98840.81
2023-05-17T22:14:32.528Z,98838.00
2023-05-17T22:16:58.786Z,98836.91
2023-05-17T22:19:25.208Z,98837.38
2023-05-17T22:21:51.641Z,98835.19
2023-05-17T22:24:18.332Z,98830.94
2023-05-17T22:26:44.666Z,98834.91
2023-05-17T22:29:10.945Z,98835.97
2023-05-17T22:31:37.198Z,98840.25
2023-05-17T22:34:03.646Z,98837.25
2023-05-17T22:36:30.464Z,98837.03
2023-05-17T22:38:57.019Z,98830.50
2023-05-17T22:41:23.325Z,98831.13
2023-05-17T22:43:49.749Z,98833.56
2023-05-17T22:46:21.171Z,98834.19
2023-05-17T22:51:35.738Z,98835.19
2023-05-17T22:54:02.032Z,98833.53
2023-05-17T22:56:28.302Z,98837.38
2023-05-17T22:58:54.578Z,98834.09
2023-05-17T23:01:20.890Z,98830.59
2023-05-17T23:03:47.194Z,98831.38
2023-05-17T23:06:13.706Z,98833.41
2023-05-17T23:08:41.135Z,98832.75
2023-05-17T23:11:07.503Z,98839.06
2023-05-17T23:13:33.793Z,98844.53
2023-05-17T23:16:00.144Z,98838.38
2023-05-17T23:18:26.443Z,98829.56
2023-05-17T23:20:52.775Z,98834.03
2023-05-17T23:23:19.044Z,98835.03
2023-05-17T23:25:45.486Z,98835.78
2023-05-17T23:28:11.751Z,98828.59
2023-05-17T23:30:38.140Z,98833.06
2023-05-17T23:33:04.450Z,98827.88
2023-05-17T23:35:31.010Z,98833.78
2023-05-17T23:37:57.533Z,98832.09
2023-05-17T23:40:24.152Z,98831.22
2023-05-17T23:42:50.432Z,98835.66
2023-05-17T23:45:16.773Z,98838.88
2023-05-17T23:47:43.223Z,98832.72
2023-05-17T23:50:09.606Z,98831.44
2023-05-17T23:52:35.887Z,98831.84
2023-05-17T23:55:02.161Z,98827.28
2023-05-17T23:57:28.455Z,98830.34
2023-05-17T23:59:54.724Z,98830.09
